sensor_id;sensor_type;location;lat;lon;timestamp;P1;durP1;ratioP1;P2;durP2;ratioP2
70148;SDS011;57514;52.164;5.282;2023-02-28T00:00:32;11.48;;;5.65;;
70148;SDS011;57514;52.164;5.282;2023-02-28T00:03:00;13.45;;;6.03;;
70148;SDS011;57514;52.164;5.282;2023-02-28T00:05:28;12.65;;;6.65;;
70148;SDS011;57514;52.164;5.282;2023-02-28T00:07:56;11.20;;;6.00;;
70148;SDS011;57514;52.164;5.282;2023-02-28T00:10:25;12.75;;;5.55;;
70148;SDS011;57514;52.164;5.282;2023-02-28T00:12:54;10.82;;;5.75;;
70148;SDS011;57514;52.164;5.282;2023-02-28T00:15:23;10.73;;;5.20;;
70148;SDS011;57514;52.164;5.282;2023-02-28T00:17:50;11.63;;;5.63;;
70148;SDS011;57514;52.164;5.282;2023-02-28T00:20:18;13.88;;;5.65;;
70148;SDS011;57514;52.164;5.282;2023-02-28T00:22:46;9.93;;;4.38;;
70148;SDS011;57514;52.164;5.282;2023-02-28T00:25:15;12.45;;;5.40;;
70148;SDS011;57514;52.164;5.282;2023-02-28T00:27:43;12.65;;;5.63;;
70148;SDS011;57514;52.164;5.282;2023-02-28T00:30:11;11.85;;;5.40;;
70148;SDS011;57514;52.164;5.282;2023-02-28T00:32:39;14.35;;;6.03;;
70148;SDS011;57514;52.164;5.282;2023-02-28T00:35:06;10.45;;;5.75;;
70148;SDS011;57514;52.164;5.282;2023-02-28T00:37:34;10.48;;;5.50;;
70148;SDS011;57514;52.164;5.282;2023-02-28T00:40:01;10.90;;;5.00;;
70148;SDS011;57514;52.164;5.282;2023-02-28T00:42:30;9.55;;;5.32;;
70148;SDS011;57514;52.164;5.282;2023-02-28T00:44:58;12.95;;;5.78;;
70148;SDS011;57514;52.164;5.282;2023-02-28T00:47:25;9.38;;;4.82;;
70148;SDS011;57514;52.164;5.282;2023-02-28T00:49:53;11.52;;;5.28;;
70148;SDS011;57514;52.164;5.282;2023-02-28T00:52:21;10.35;;;4.90;;
70148;SDS011;57514;52.164;5.282;2023-02-28T00:54:48;13.70;;;5.95;;
70148;SDS011;57514;52.164;5.282;2023-02-28T00:57:15;10.82;;;5.15;;
70148;SDS011;57514;52.164;5.282;2023-02-28T00:59:42;11.93;;;5.78;;
70148;SDS011;57514;52.164;5.282;2023-02-28T01:02:10;12.65;;;5.68;;
70148;SDS011;57514;52.164;5.282;2023-02-28T01:04:37;13.35;;;5.22;;
70148;SDS011;57514;52.164;5.282;2023-02-28T01:07:04;11.02;;;5.70;;
70148;SDS011;57514;52.164;5.282;2023-02-28T01:09:31;10.48;;;5.43;;
70148;SDS011;57514;52.164;5.282;2023-02-28T01:11:59;10.05;;;5.07;;
70148;SDS011;57514;52.164;5.282;2023-02-28T01:14:26;11.00;;;4.75;;
70148;SDS011;57514;52.164;5.282;2023-02-28T01:16:53;12.25;;;4.05;;
70148;SDS011;57514;52.164;5.282;2023-02-28T01:19:20;10.13;;;4.75;;
70148;SDS011;57514;52.164;5.282;2023-02-28T01:21:48;11.05;;;4.65;;
70148;SDS011;57514;52.164;5.282;2023-02-28T01:24:15;10.20;;;4.95;;
70148;SDS011;57514;52.164;5.282;2023-02-28T01:26:43;10.18;;;4.70;;
70148;SDS011;57514;52.164;5.282;2023-02-28T01:29:10;11.95;;;5.43;;
70148;SDS011;57514;52.164;5.282;2023-02-28T01:31:38;8.75;;;4.38;;
70148;SDS011;57514;52.164;5.282;2023-02-28T01:34:07;12.85;;;5.03;;
70148;SDS011;57514;52.164;5.282;2023-02-28T01:36:34;10.45;;;4.90;;
70148;SDS011;57514;52.164;5.282;2023-02-28T01:39:02;10.43;;;4.47;;
70148;SDS011;57514;52.164;5.282;2023-02-28T01:41:31;11.25;;;5.07;;
70148;SDS011;57514;52.164;5.282;2023-02-28T01:44:01;12.30;;;5.53;;
70148;SDS011;57514;52.164;5.282;2023-02-28T01:46:30;8.48;;;4.55;;
70148;SDS011;57514;52.164;5.282;2023-02-28T01:51:33;10.25;;;4.10;;
70148;SDS011;57514;52.164;5.282;2023-02-28T01:54:05;9.23;;;4.78;;
70148;SDS011;57514;52.164;5.282;2023-02-28T01:56:42;11.52;;;4.88;;
70148;SDS011;57514;52.164;5.282;2023-02-28T01:59:12;10.30;;;4.63;;
70148;SDS011;57514;52.164;5.282;2023-02-28T02:01:40;11.70;;;5.50;;
70148;SDS011;57514;52.164;5.282;2023-02-28T02:04:07;11.50;;;4.45;;
70148;SDS011;57514;52.164;5.282;2023-02-28T02:06:39;9.00;;;4.70;;
70148;SDS011;57514;52.164;5.282;2023-02-28T02:09:09;10.25;;;5.05;;
70148;SDS011;57514;52.164;5.282;2023-02-28T02:11:36;9.32;;;4.32;;
70148;SDS011;57514;52.164;5.282;2023-02-28T02:21:54;9.57;;;4.50;;
70148;SDS011;57514;52.164;5.282;2023-02-28T02:27:03;11.43;;;4.65;;
70148;SDS011;57514;52.164;5.282;2023-02-28T02:34:44;11.60;;;4.28;;
70148;SDS011;57514;52.164;5.282;2023-02-28T02:42:39;10.02;;;3.55;;
70148;SDS011;57514;52.164;5.282;2023-02-28T02:45:14;6.25;;;2.58;;
70148;SDS011;57514;52.164;5.282;2023-02-28T02:47:43;9.10;;;4.15;;
70148;SDS011;57514;52.164;5.282;2023-02-28T02:50:13;9.07;;;4.32;;
70148;SDS011;57514;52.164;5.282;2023-02-28T02:52:42;7.35;;;3.58;;
70148;SDS011;57514;52.164;5.282;2023-02-28T02:55:13;6.40;;;3.28;;
70148;SDS011;57514;52.164;5.282;2023-02-28T02:57:46;7.75;;;3.30;;
70148;SDS011;57514;52.164;5.282;2023-02-28T03:00:15;11.50;;;3.78;;
70148;SDS011;57514;52.164;5.282;2023-02-28T03:02:45;6.72;;;3.42;;
70148;SDS011;57514;52.164;5.282;2023-02-28T03:05:17;13.05;;;3.95;;
70148;SDS011;57514;52.164;5.282;2023-02-28T03:07:46;8.52;;;4.30;;
70148;SDS011;57514;52.164;5.282;2023-02-28T03:10:30;10.23;;;4.20;;
70148;SDS011;57514;52.164;5.282;2023-02-28T03:13:00;6.05;;;3.55;;
70148;SDS011;57514;52.164;5.282;2023-02-28T03:15:32;9.05;;;3.35;;
70148;SDS011;57514;52.164;5.282;2023-02-28T03:18:07;9.57;;;4.32;;
70148;SDS011;57514;52.164;5.282;2023-02-28T03:20:40;7.55;;;3.38;;
70148;SDS011;57514;52.164;5.282;2023-02-28T03:23:15;8.13;;;3.85;;
70148;SDS011;57514;52.164;5.282;2023-02-28T03:28:17;6.82;;;3.40;;
70148;SDS011;57514;52.164;5.282;2023-02-28T03:30:47;10.63;;;3.90;;
70148;SDS011;57514;52.164;5.282;2023-02-28T03:35:56;8.25;;;3.88;;
70148;SDS011;57514;52.164;5.282;2023-02-28T03:41:35;10.18;;;4.15;;
70148;SDS011;57514;52.164;5.282;2023-02-28T03:43:54;12.05;;;4.25;;
70148;SDS011;57514;52.164;5.282;2023-02-28T03:46:25;10.25;;;4.45;;
70148;SDS011;57514;52.164;5.282;2023-02-28T03:48:55;12.65;;;3.83;;
70148;SDS011;57514;52.164;5.282;2023-02-28T03:51:23;8.32;;;3.88;;
70148;SDS011;57514;52.164;5.282;2023-02-28T03:53:52;8.15;;;4.13;;
70148;SDS011;57514;52.164;5.282;2023-02-28T03:56:31;10.70;;;3.63;;
70148;SDS011;57514;52.164;5.282;2023-02-28T03:59:01;10.27;;;4.55;;
70148;SDS011;57514;52.164;5.282;2023-02-28T04:04:03;7.20;;;4.00;;
70148;SDS011;57514;52.164;5.282;2023-02-28T04:06:31;7.43;;;3.35;;
70148;SDS011;57514;52.164;5.282;2023-02-28T04:08:59;8.50;;;3.78;;
70148;SDS011;57514;52.164;5.282;2023-02-28T04:13:57;8.55;;;4.22;;
70148;SDS011;57514;52.164;5.282;2023-02-28T04:16:24;7.30;;;3.45;;
70148;SDS011;57514;52.164;5.282;2023-02-28T04:19:01;8.73;;;4.10;;
70148;SDS011;57514;52.164;5.282;2023-02-28T04:21:31;9.20;;;3.97;;
70148;SDS011;57514;52.164;5.282;2023-02-28T04:23:59;7.72;;;3.83;;
70148;SDS011;57514;52.164;5.282;2023-02-28T04:26:29;9.27;;;4.68;;
70148;SDS011;57514;52.164;5.282;2023-02-28T04:28:57;11.63;;;4.90;;
70148;SDS011;57514;52.164;5.282;2023-02-28T04:31:25;4.88;;;3.05;;
70148;SDS011;57514;52.164;5.282;2023-02-28T04:33:53;9.80;;;5.07;;
70148;SDS011;57514;52.164;5.282;2023-02-28T04:36:20;13.23;;;4.80;;
70148;SDS011;57514;52.164;5.282;2023-02-28T04:38:49;10.00;;;4.45;;
70148;SDS011;57514;52.164;5.282;2023-02-28T04:41:16;4.45;;;2.55;;
70148;SDS011;57514;52.164;5.282;2023-02-28T04:43:43;8.18;;;3.70;;
70148;SDS011;57514;52.164;5.282;2023-02-28T04:46:12;5.95;;;3.05;;
70148;SDS011;57514;52.164;5.282;2023-02-28T04:48:39;6.47;;;2.95;;
70148;SDS011;57514;52.164;5.282;2023-02-28T04:51:09;6.15;;;3.13;;
70148;SDS011;57514;52.164;5.282;2023-02-28T04:53:37;7.95;;;3.50;;
70148;SDS011;57514;52.164;5.282;2023-02-28T04:56:05;11.73;;;3.35;;
70148;SDS011;57514;52.164;5.282;2023-02-28T04:58:33;7.93;;;3.95;;
70148;SDS011;57514;52.164;5.282;2023-02-28T05:01:01;5.55;;;2.58;;
70148;SDS011;57514;52.164;5.282;2023-02-28T05:03:29;5.70;;;2.75;;
70148;SDS011;57514;52.164;5.282;2023-02-28T05:05:57;8.50;;;3.65;;
70148;SDS011;57514;52.164;5.282;2023-02-28T05:08:24;10.35;;;3.85;;
70148;SDS011;57514;52.164;5.282;2023-02-28T05:10:51;8.68;;;3.75;;
70148;SDS011;57514;52.164;5.282;2023-02-28T05:13:18;8.38;;;3.83;;
70148;SDS011;57514;52.164;5.282;2023-02-28T05:15:45;5.90;;;3.50;;
70148;SDS011;57514;52.164;5.282;2023-02-28T05:18:13;6.68;;;3.80;;
70148;SDS011;57514;52.164;5.282;2023-02-28T05:20:40;7.38;;;4.20;;
70148;SDS011;57514;52.164;5.282;2023-02-28T05:23:13;7.75;;;3.60;;
70148;SDS011;57514;52.164;5.282;2023-02-28T05:25:41;6.57;;;3.00;;
70148;SDS011;57514;52.164;5.282;2023-02-28T05:28:08;6.13;;;3.60;;
70148;SDS011;57514;52.164;5.282;2023-02-28T05:30:37;7.60;;;3.35;;
70148;SDS011;57514;52.164;5.282;2023-02-28T05:33:04;7.55;;;3.75;;
70148;SDS011;57514;52.164;5.282;2023-02-28T05:35:31;7.13;;;3.85;;
70148;SDS011;57514;52.164;5.282;2023-02-28T05:37:58;5.43;;;3.00;;
70148;SDS011;57514;52.164;5.282;2023-02-28T05:40:26;8.75;;;4.22;;
70148;SDS011;57514;52.164;5.282;2023-02-28T05:42:53;7.78;;;3.88;;
70148;SDS011;57514;52.164;5.282;2023-02-28T05:45:20;8.00;;;3.80;;
70148;SDS011;57514;52.164;5.282;2023-02-28T05:47:48;6.97;;;3.83;;
70148;SDS011;57514;52.164;5.282;2023-02-28T05:50:16;5.68;;;2.35;;
70148;SDS011;57514;52.164;5.282;2023-02-28T05:52:43;9.52;;;4.10;;
70148;SDS011;57514;52.164;5.282;2023-02-28T05:55:10;9.10;;;4.32;;
70148;SDS011;57514;52.164;5.282;2023-02-28T05:57:37;10.55;;;3.95;;
70148;SDS011;57514;52.164;5.282;2023-02-28T06:00:05;11.43;;;4.68;;
70148;SDS011;57514;52.164;5.282;2023-02-28T06:02:38;7.15;;;3.80;;
70148;SDS011;57514;52.164;5.282;2023-02-28T06:05:09;7.55;;;4.38;;
70148;SDS011;57514;52.164;5.282;2023-02-28T06:07:39;9.43;;;4.25;;
70148;SDS011;57514;52.164;5.282;2023-02-28T06:10:07;8.95;;;4.07;;
70148;SDS011;57514;52.164;5.282;2023-02-28T06:12:34;11.32;;;4.43;;
70148;SDS011;57514;52.164;5.282;2023-02-28T06:15:04;9.93;;;4.38;;
70148;SDS011;57514;52.164;5.282;2023-02-28T06:17:31;11.18;;;5.25;;
70148;SDS011;57514;52.164;5.282;2023-02-28T06:19:58;11.05;;;5.45;;
70148;SDS011;57514;52.164;5.282;2023-02-28T06:22:26;8.98;;;4.25;;
70148;SDS011;57514;52.164;5.282;2023-02-28T06:24:53;8.00;;;4.47;;
70148;SDS011;57514;52.164;5.282;2023-02-28T06:27:21;8.43;;;4.15;;
70148;SDS011;57514;52.164;5.282;2023-02-28T06:29:48;8.88;;;4.25;;
70148;SDS011;57514;52.164;5.282;2023-02-28T06:32:16;9.85;;;4.90;;
70148;SDS011;57514;52.164;5.282;2023-02-28T06:34:43;7.88;;;4.25;;
70148;SDS011;57514;52.164;5.282;2023-02-28T06:37:11;8.98;;;4.90;;
70148;SDS011;57514;52.164;5.282;2023-02-28T06:39:38;8.00;;;4.25;;
70148;SDS011;57514;52.164;5.282;2023-02-28T06:42:05;8.30;;;4.38;;
70148;SDS011;57514;52.164;5.282;2023-02-28T06:44:33;12.02;;;4.45;;
70148;SDS011;57514;52.164;5.282;2023-02-28T06:47:04;8.70;;;4.13;;
70148;SDS011;57514;52.164;5.282;2023-02-28T06:49:32;9.40;;;4.78;;
70148;SDS011;57514;52.164;5.282;2023-02-28T06:52:00;10.10;;;3.65;;
70148;SDS011;57514;52.164;5.282;2023-02-28T06:54:27;9.93;;;5.30;;
70148;SDS011;57514;52.164;5.282;2023-02-28T06:56:55;10.32;;;5.50;;
70148;SDS011;57514;52.164;5.282;2023-02-28T06:59:22;9.90;;;4.88;;
70148;SDS011;57514;52.164;5.282;2023-02-28T07:01:49;12.48;;;5.00;;
70148;SDS011;57514;52.164;5.282;2023-02-28T07:04:17;10.48;;;5.10;;
70148;SDS011;57514;52.164;5.282;2023-02-28T07:06:44;10.80;;;4.15;;
70148;SDS011;57514;52.164;5.282;2023-02-28T07:09:12;10.20;;;4.82;;
70148;SDS011;57514;52.164;5.282;2023-02-28T07:11:40;10.90;;;5.40;;
70148;SDS011;57514;52.164;5.282;2023-02-28T07:14:09;10.55;;;5.55;;
70148;SDS011;57514;52.164;5.282;2023-02-28T07:16:36;8.85;;;4.30;;
70148;SDS011;57514;52.164;5.282;2023-02-28T07:19:03;9.27;;;4.28;;
70148;SDS011;57514;52.164;5.282;2023-02-28T07:21:30;12.75;;;5.20;;
70148;SDS011;57514;52.164;5.282;2023-02-28T07:23:58;11.18;;;5.25;;
70148;SDS011;57514;52.164;5.282;2023-02-28T07:26:25;10.45;;;5.20;;
70148;SDS011;57514;52.164;5.282;2023-02-28T07:28:52;10.35;;;5.07;;
70148;SDS011;57514;52.164;5.282;2023-02-28T07:31:20;10.45;;;5.72;;
70148;SDS011;57514;52.164;5.282;2023-02-28T07:33:47;14.48;;;5.30;;
70148;SDS011;57514;52.164;5.282;2023-02-28T07:36:15;11.30;;;6.03;;
70148;SDS011;57514;52.164;5.282;2023-02-28T07:38:45;10.38;;;5.55;;
70148;SDS011;57514;52.164;5.282;2023-02-28T07:41:15;11.63;;;5.65;;
70148;SDS011;57514;52.164;5.282;2023-02-28T07:43:43;11.30;;;5.50;;
70148;SDS011;57514;52.164;5.282;2023-02-28T07:46:11;11.02;;;5.80;;
70148;SDS011;57514;52.164;5.282;2023-02-28T07:48:41;11.85;;;5.82;;
70148;SDS011;57514;52.164;5.282;2023-02-28T07:51:08;11.35;;;6.03;;
70148;SDS011;57514;52.164;5.282;2023-02-28T07:53:36;9.93;;;5.13;;
70148;SDS011;57514;52.164;5.282;2023-02-28T07:56:03;11.25;;;6.43;;
70148;SDS011;57514;52.164;5.282;2023-02-28T07:58:31;14.57;;;7.18;;
70148;SDS011;57514;52.164;5.282;2023-02-28T08:01:04;13.68;;;5.93;;
70148;SDS011;57514;52.164;5.282;2023-02-28T08:03:32;13.35;;;7.95;;
70148;SDS011;57514;52.164;5.282;2023-02-28T08:05:59;14.27;;;7.90;;
70148;SDS011;57514;52.164;5.282;2023-02-28T08:08:27;13.13;;;6.22;;
70148;SDS011;57514;52.164;5.282;2023-02-28T08:10:58;12.60;;;6.78;;
70148;SDS011;57514;52.164;5.282;2023-02-28T08:13:26;11.23;;;5.88;;
70148;SDS011;57514;52.164;5.282;2023-02-28T08:15:54;10.23;;;5.47;;
70148;SDS011;57514;52.164;5.282;2023-02-28T08:18:22;9.45;;;5.28;;
70148;SDS011;57514;52.164;5.282;2023-02-28T08:20:49;10.18;;;5.78;;
70148;SDS011;57514;52.164;5.282;2023-02-28T08:23:17;12.23;;;5.95;;
70148;SDS011;57514;52.164;5.282;2023-02-28T08:25:44;11.02;;;5.50;;
70148;SDS011;57514;52.164;5.282;2023-02-28T08:28:11;11.90;;;5.78;;
70148;SDS011;57514;52.164;5.282;2023-02-28T08:30:38;10.90;;;4.88;;
70148;SDS011;57514;52.164;5.282;2023-02-28T08:33:07;10.32;;;5.93;;
70148;SDS011;57514;52.164;5.282;2023-02-28T08:35:35;10.70;;;5.55;;
70148;SDS011;57514;52.164;5.282;2023-02-28T08:38:03;10.02;;;4.75;;
70148;SDS011;57514;52.164;5.282;2023-02-28T08:40:30;12.05;;;5.43;;
70148;SDS011;57514;52.164;5.282;2023-02-28T08:42:57;13.05;;;5.95;;
70148;SDS011;57514;52.164;5.282;2023-02-28T08:45:25;8.77;;;4.90;;
70148;SDS011;57514;52.164;5.282;2023-02-28T08:47:56;11.45;;;6.15;;
70148;SDS011;57514;52.164;5.282;2023-02-28T08:50:23;9.77;;;5.82;;
70148;SDS011;57514;52.164;5.282;2023-02-28T08:52:50;9.57;;;4.93;;
70148;SDS011;57514;52.164;5.282;2023-02-28T08:55:17;13.10;;;6.25;;
70148;SDS011;57514;52.164;5.282;2023-02-28T08:57:45;12.30;;;7.38;;
70148;SDS011;57514;52.164;5.282;2023-02-28T09:00:12;11.45;;;5.55;;
70148;SDS011;57514;52.164;5.282;2023-02-28T09:02:40;6.60;;;4.13;;
70148;SDS011;57514;52.164;5.282;2023-02-28T09:05:09;12.00;;;6.00;;
70148;SDS011;57514;52.164;5.282;2023-02-28T09:07:37;11.98;;;6.35;;
70148;SDS011;57514;52.164;5.282;2023-02-28T09:10:04;11.85;;;5.22;;
70148;SDS011;57514;52.164;5.282;2023-02-28T09:12:33;11.20;;;5.90;;
70148;SDS011;57514;52.164;5.282;2023-02-28T09:15:07;10.57;;;4.70;;
70148;SDS011;57514;52.164;5.282;2023-02-28T09:17:34;11.50;;;4.93;;
70148;SDS011;57514;52.164;5.282;2023-02-28T09:20:02;9.73;;;5.40;;
70148;SDS011;57514;52.164;5.282;2023-02-28T09:22:29;10.30;;;5.22;;
70148;SDS011;57514;52.164;5.282;2023-02-28T09:24:56;9.00;;;4.68;;
70148;SDS011;57514;52.164;5.282;2023-02-28T09:27:24;10.75;;;4.70;;
70148;SDS011;57514;52.164;5.282;2023-02-28T09:29:51;7.57;;;3.95;;
70148;SDS011;57514;52.164;5.282;2023-02-28T09:32:18;7.90;;;3.40;;
70148;SDS011;57514;52.164;5.282;2023-02-28T09:34:45;7.28;;;3.47;;
70148;SDS011;57514;52.164;5.282;2023-02-28T09:37:13;7.88;;;3.92;;
70148;SDS011;57514;52.164;5.282;2023-02-28T09:39:40;8.00;;;4.15;;
70148;SDS011;57514;52.164;5.282;2023-02-28T09:42:11;11.20;;;4.13;;
70148;SDS011;57514;52.164;5.282;2023-02-28T09:44:44;8.32;;;4.30;;
70148;SDS011;57514;52.164;5.282;2023-02-28T09:47:26;9.68;;;4.30;;
70148;SDS011;57514;52.164;5.282;2023-02-28T09:49:56;8.02;;;4.15;;
70148;SDS011;57514;52.164;5.282;2023-02-28T09:52:28;8.38;;;4.05;;
70148;SDS011;57514;52.164;5.282;2023-02-28T09:55:00;6.72;;;3.83;;
70148;SDS011;57514;52.164;5.282;2023-02-28T10:00:13;5.32;;;2.53;;
70148;SDS011;57514;52.164;5.282;2023-02-28T10:05:33;6.60;;;2.75;;
70148;SDS011;57514;52.164;5.282;2023-02-28T10:08:02;6.82;;;3.65;;
70148;SDS011;57514;52.164;5.282;2023-02-28T10:10:34;4.63;;;2.67;;
70148;SDS011;57514;52.164;5.282;2023-02-28T10:13:05;7.07;;;3.20;;
70148;SDS011;57514;52.164;5.282;2023-02-28T10:15:33;4.78;;;2.92;;
70148;SDS011;57514;52.164;5.282;2023-02-28T10:18:03;6.00;;;2.92;;
70148;SDS011;57514;52.164;5.282;2023-02-28T10:20:35;4.28;;;2.30;;
70148;SDS011;57514;52.164;5.282;2023-02-28T10:25:38;6.03;;;3.10;;
70148;SDS011;57514;52.164;5.282;2023-02-28T10:28:12;4.68;;;2.75;;
70148;SDS011;57514;52.164;5.282;2023-02-28T10:30:41;5.60;;;3.90;;
70148;SDS011;57514;52.164;5.282;2023-02-28T10:33:22;3.40;;;2.53;;
70148;SDS011;57514;52.164;5.282;2023-02-28T10:35:51;5.57;;;3.15;;
70148;SDS011;57514;52.164;5.282;2023-02-28T10:38:23;4.97;;;3.15;;
70148;SDS011;57514;52.164;5.282;2023-02-28T10:40:50;5.15;;;3.10;;
70148;SDS011;57514;52.164;5.282;2023-02-28T10:43:19;5.20;;;3.00;;
70148;SDS011;57514;52.164;5.282;2023-02-28T10:56:35;4.95;;;2.83;;
70148;SDS011;57514;52.164;5.282;2023-02-28T10:58:52;4.75;;;3.00;;
70148;SDS011;57514;52.164;5.282;2023-02-28T11:01:38;5.47;;;2.90;;
70148;SDS011;57514;52.164;5.282;2023-02-28T11:06:59;5.57;;;3.00;;
70148;SDS011;57514;52.164;5.282;2023-02-28T11:09:53;4.25;;;2.45;;
70148;SDS011;57514;52.164;5.282;2023-02-28T11:15:34;5.13;;;2.33;;
70148;SDS011;57514;52.164;5.282;2023-02-28T11:17:44;4.70;;;2.10;;
70148;SDS011;57514;52.164;5.282;2023-02-28T11:20:31;6.65;;;2.53;;
70148;SDS011;57514;52.164;5.282;2023-02-28T11:25:35;4.15;;;2.35;;
70148;SDS011;57514;52.164;5.282;2023-02-28T11:28:05;5.20;;;2.50;;
70148;SDS011;57514;52.164;5.282;2023-02-28T11:30:59;5.68;;;2.72;;
70148;SDS011;57514;52.164;5.282;2023-02-28T11:33:31;4.65;;;2.65;;
70148;SDS011;57514;52.164;5.282;2023-02-28T11:36:10;4.85;;;2.83;;
70148;SDS011;57514;52.164;5.282;2023-02-28T11:38:40;3.72;;;2.50;;
70148;SDS011;57514;52.164;5.282;2023-02-28T11:41:15;5.13;;;2.30;;
70148;SDS011;57514;52.164;5.282;2023-02-28T11:46:36;5.50;;;2.60;;
70148;SDS011;57514;52.164;5.282;2023-02-28T11:51:35;3.63;;;2.42;;
70148;SDS011;57514;52.164;5.282;2023-02-28T11:54:50;4.63;;;2.75;;
70148;SDS011;57514;52.164;5.282;2023-02-28T11:57:32;4.78;;;2.78;;
70148;SDS011;57514;52.164;5.282;2023-02-28T12:02:57;3.42;;;1.95;;
70148;SDS011;57514;52.164;5.282;2023-02-28T12:05:46;5.25;;;2.90;;
70148;SDS011;57514;52.164;5.282;2023-02-28T12:19:53;4.70;;;2.03;;
70148;SDS011;57514;52.164;5.282;2023-02-28T12:22:43;4.88;;;2.63;;
70148;SDS011;57514;52.164;5.282;2023-02-28T12:25:32;4.13;;;2.45;;
70148;SDS011;57514;52.164;5.282;2023-02-28T12:28:17;4.15;;;2.03;;
70148;SDS011;57514;52.164;5.282;2023-02-28T12:31:01;4.35;;;1.95;;
70148;SDS011;57514;52.164;5.282;2023-02-28T12:33:59;4.65;;;2.00;;
70148;SDS011;57514;52.164;5.282;2023-02-28T12:36:31;5.03;;;2.53;;
70148;SDS011;57514;52.164;5.282;2023-02-28T12:39:14;4.43;;;2.67;;
70148;SDS011;57514;52.164;5.282;2023-02-28T12:42:17;6.32;;;2.20;;
70148;SDS011;57514;52.164;5.282;2023-02-28T12:44:52;4.78;;;2.50;;
70148;SDS011;57514;52.164;5.282;2023-02-28T12:47:24;3.85;;;2.03;;
70148;SDS011;57514;52.164;5.282;2023-02-28T12:50:05;3.72;;;2.05;;
70148;SDS011;57514;52.164;5.282;2023-02-28T12:52:44;4.38;;;2.22;;
70148;SDS011;57514;52.164;5.282;2023-02-28T12:55:23;4.43;;;2.25;;
70148;SDS011;57514;52.164;5.282;2023-02-28T12:58:13;5.88;;;2.67;;
70148;SDS011;57514;52.164;5.282;2023-02-28T13:01:03;3.38;;;2.08;;
70148;SDS011;57514;52.164;5.282;2023-02-28T13:09:21;4.63;;;2.58;;
70148;SDS011;57514;52.164;5.282;2023-02-28T13:11:49;4.68;;;2.40;;
70148;SDS011;57514;52.164;5.282;2023-02-28T13:14:20;3.67;;;2.53;;
70148;SDS011;57514;52.164;5.282;2023-02-28T13:19:43;4.28;;;2.50;;
70148;SDS011;57514;52.164;5.282;2023-02-28T13:22:19;4.75;;;2.28;;
70148;SDS011;57514;52.164;5.282;2023-02-28T13:24:47;5.50;;;2.65;;
70148;SDS011;57514;52.164;5.282;2023-02-28T13:29:50;5.32;;;2.90;;
70148;SDS011;57514;52.164;5.282;2023-02-28T13:32:34;4.60;;;2.90;;
70148;SDS011;57514;52.164;5.282;2023-02-28T13:37:54;4.53;;;2.78;;
70148;SDS011;57514;52.164;5.282;2023-02-28T13:40:35;5.32;;;2.67;;
70148;SDS011;57514;52.164;5.282;2023-02-28T13:43:07;5.47;;;2.80;;
70148;SDS011;57514;52.164;5.282;2023-02-28T13:48:16;5.63;;;2.75;;
70148;SDS011;57514;52.164;5.282;2023-02-28T13:50:44;6.55;;;2.90;;
70148;SDS011;57514;52.164;5.282;2023-02-28T14:08:47;8.40;;;4.43;;
70148;SDS011;57514;52.164;5.282;2023-02-28T14:17:16;4.25;;;2.53;;
70148;SDS011;57514;52.164;5.282;2023-02-28T14:19:44;4.60;;;2.85;;
70148;SDS011;57514;52.164;5.282;2023-02-28T14:32:51;5.70;;;3.17;;
70148;SDS011;57514;52.164;5.282;2023-02-28T14:38:07;7.32;;;3.83;;
70148;SDS011;57514;52.164;5.282;2023-02-28T14:40:40;6.03;;;3.47;;
70148;SDS011;57514;52.164;5.282;2023-02-28T14:43:18;4.80;;;3.13;;
70148;SDS011;57514;52.164;5.282;2023-02-28T14:45:49;5.68;;;3.38;;
70148;SDS011;57514;52.164;5.282;2023-02-28T14:48:17;8.45;;;3.60;;
70148;SDS011;57514;52.164;5.282;2023-02-28T14:50:50;8.20;;;3.63;;
70148;SDS011;57514;52.164;5.282;2023-02-28T14:53:18;8.45;;;3.45;;
70148;SDS011;57514;52.164;5.282;2023-02-28T14:55:47;5.90;;;3.42;;
70148;SDS011;57514;52.164;5.282;2023-02-28T15:00:49;6.82;;;3.60;;
70148;SDS011;57514;52.164;5.282;2023-02-28T15:03:18;5.68;;;3.38;;
70148;SDS011;57514;52.164;5.282;2023-02-28T15:06:02;5.65;;;3.08;;
70148;SDS011;57514;52.164;5.282;2023-02-28T15:08:32;4.80;;;2.80;;
70148;SDS011;57514;52.164;5.282;2023-02-28T15:11:24;5.53;;;3.25;;
70148;SDS011;57514;52.164;5.282;2023-02-28T15:13:53;5.72;;;3.10;;
70148;SDS011;57514;52.164;5.282;2023-02-28T15:21:35;5.63;;;3.22;;
70148;SDS011;57514;52.164;5.282;2023-02-28T15:24:04;7.05;;;3.97;;
70148;SDS011;57514;52.164;5.282;2023-02-28T15:26:33;5.97;;;3.28;;
70148;SDS011;57514;52.164;5.282;2023-02-28T15:29:10;7.07;;;3.50;;
70148;SDS011;57514;52.164;5.282;2023-02-28T15:31:48;6.30;;;3.20;;
70148;SDS011;57514;52.164;5.282;2023-02-28T15:34:42;7.35;;;2.63;;
70148;SDS011;57514;52.164;5.282;2023-02-28T15:39:41;4.80;;;2.53;;
70148;SDS011;57514;52.164;5.282;2023-02-28T15:42:12;6.32;;;3.10;;
70148;SDS011;57514;52.164;5.282;2023-02-28T15:44:43;7.20;;;3.83;;
70148;SDS011;57514;52.164;5.282;2023-02-28T15:47:20;6.38;;;3.92;;
70148;SDS011;57514;52.164;5.282;2023-02-28T15:49:49;6.07;;;3.35;;
70148;SDS011;57514;52.164;5.282;2023-02-28T15:52:22;6.97;;;3.28;;
70148;SDS011;57514;52.164;5.282;2023-02-28T15:54:51;8.52;;;3.60;;
70148;SDS011;57514;52.164;5.282;2023-02-28T15:57:20;5.95;;;3.38;;
70148;SDS011;57514;52.164;5.282;2023-02-28T15:59:49;6.90;;;3.30;;
70148;SDS011;57514;52.164;5.282;2023-02-28T16:05:12;6.47;;;3.38;;
70148;SDS011;57514;52.164;5.282;2023-02-28T16:10:10;7.43;;;3.28;;
70148;SDS011;57514;52.164;5.282;2023-02-28T16:12:38;7.07;;;3.80;;
70148;SDS011;57514;52.164;5.282;2023-02-28T16:15:17;5.72;;;3.72;;
70148;SDS011;57514;52.164;5.282;2023-02-28T16:17:44;6.88;;;3.53;;
70148;SDS011;57514;52.164;5.282;2023-02-28T16:20:14;5.85;;;3.50;;
70148;SDS011;57514;52.164;5.282;2023-02-28T16:22:42;6.55;;;3.67;;
70148;SDS011;57514;52.164;5.282;2023-02-28T16:25:13;4.90;;;2.72;;
70148;SDS011;57514;52.164;5.282;2023-02-28T16:27:41;7.43;;;3.97;;
70148;SDS011;57514;52.164;5.282;2023-02-28T16:30:15;7.40;;;4.03;;
70148;SDS011;57514;52.164;5.282;2023-02-28T16:32:43;6.35;;;3.63;;
70148;SDS011;57514;52.164;5.282;2023-02-28T16:35:11;5.80;;;3.50;;
70148;SDS011;57514;52.164;5.282;2023-02-28T16:37:40;7.22;;;3.67;;
70148;SDS011;57514;52.164;5.282;2023-02-28T16:40:15;10.75;;;4.28;;
70148;SDS011;57514;52.164;5.282;2023-02-28T16:42:43;7.43;;;4.30;;
70148;SDS011;57514;52.164;5.282;2023-02-28T16:45:14;7.55;;;4.00;;
70148;SDS011;57514;52.164;5.282;2023-02-28T16:47:50;9.45;;;4.43;;
70148;SDS011;57514;52.164;5.282;2023-02-28T16:50:22;7.05;;;3.90;;
70148;SDS011;57514;52.164;5.282;2023-02-28T16:52:58;8.55;;;4.10;;
70148;SDS011;57514;52.164;5.282;2023-02-28T16:55:26;10.98;;;4.97;;
70148;SDS011;57514;52.164;5.282;2023-02-28T16:57:54;9.65;;;4.72;;
70148;SDS011;57514;52.164;5.282;2023-02-28T17:00:22;12.13;;;6.05;;
70148;SDS011;57514;52.164;5.282;2023-02-28T17:03:02;9.43;;;5.20;;
70148;SDS011;57514;52.164;5.282;2023-02-28T17:05:35;9.65;;;5.13;;
70148;SDS011;57514;52.164;5.282;2023-02-28T17:08:08;9.65;;;4.60;;
70148;SDS011;57514;52.164;5.282;2023-02-28T17:10:35;9.50;;;5.53;;
70148;SDS011;57514;52.164;5.282;2023-02-28T17:13:02;14.50;;;5.18;;
70148;SDS011;57514;52.164;5.282;2023-02-28T17:15:40;11.95;;;4.55;;
70148;SDS011;57514;52.164;5.282;2023-02-28T17:18:09;8.57;;;4.78;;
70148;SDS011;57514;52.164;5.282;2023-02-28T17:20:41;9.80;;;4.85;;
70148;SDS011;57514;52.164;5.282;2023-02-28T17:23:08;9.23;;;4.13;;
70148;SDS011;57514;52.164;5.282;2023-02-28T17:25:35;7.97;;;4.65;;
70148;SDS011;57514;52.164;5.282;2023-02-28T17:28:03;8.73;;;4.85;;
70148;SDS011;57514;52.164;5.282;2023-02-28T17:30:32;9.52;;;4.93;;
70148;SDS011;57514;52.164;5.282;2023-02-28T17:33:00;7.85;;;4.60;;